createdAt,value
2023-04-28T00:00:58.699Z,96996.97
2023-04-28T00:03:25.545Z,97022.13
2023-04-28T00:05:53.002Z,96990.88
2023-04-28T00:08:19.671Z,96990.06
2023-04-28T00:10:46.083Z,96987.41
2023-04-28T00:13:12.520Z,96986.34
2023-04-28T00:15:38.943Z,97008.06
2023-04-28T00:18:05.390Z,96993.53
2023-04-28T00:20:31.796Z,97009.69
2023-04-28T00:22:58.190Z,96993.41
2023-04-28T00:25:24.612Z,96978.97
2023-04-28T00:27:50.984Z,96969.06
2023-04-28T00:30:17.721Z,96986.41
2023-04-28T00:32:44.268Z,96976.75
2023-04-28T00:35:10.722Z,96957.72
2023-04-28T00:37:37.461Z,96959.06
2023-04-28T00:40:04.097Z,96979.13
2023-04-28T00:42:30.631Z,96981.25
2023-04-28T00:44:57.372Z,96982.63
2023-04-28T00:47:23.867Z,96980.75
2023-04-28T00:49:50.416Z,96975.66
2023-04-28T00:52:16.895Z,96975.13
2023-04-28T00:54:43.557Z,96978.13
2023-04-28T00:57:10.197Z,96955.66
2023-04-28T00:59:36.647Z,96931.78
2023-04-28T01:02:03.394Z,96945.69
2023-04-28T01:04:30.028Z,96946.22
2023-04-28T01:06:56.731Z,96949.97
2023-04-28T01:09:23.354Z,96961.25
2023-04-28T01:11:49.769Z,96963.91
2023-04-28T01:14:16.437Z,96937.69
2023-04-28T01:16:43.102Z,96940.63
2023-04-28T01:19:13.295Z,96964.19
2023-04-28T01:21:39.679Z,96958.03
2023-04-28T01:24:06.286Z,96963.91
2023-04-28T01:26:32.876Z,96962.28
2023-04-28T01:28:59.288Z,96945.16
2023-04-28T01:31:25.785Z,96960.16
2023-04-28T01:33:52.227Z,96981.00
2023-04-28T01:36:18.984Z,96945.69
2023-04-28T01:38:45.430Z,96967.34
2023-04-28T01:41:11.791Z,96945.69
2023-04-28T01:43:38.196Z,96951.84
2023-04-28T01:46:04.635Z,96928.25
2023-04-28T01:48:31.117Z,96932.84
2023-04-28T01:50:57.500Z,96940.31
2023-04-28T01:53:24.014Z,96942.50
2023-04-28T01:55:50.702Z,96929.38
2023-04-28T01:58:17.142Z,96931.75
2023-04-28T02:00:43.531Z,96935.50
2023-04-28T02:03:10.073Z,96934.69
2023-04-28T02:05:36.940Z,96963.63
2023-04-28T02:08:03.454Z,96939.25
2023-04-28T02:10:29.853Z,96959.34
2023-04-28T02:12:56.347Z,96948.34
2023-04-28T02:15:22.724Z,96955.84
2023-04-28T02:17:49.259Z,96914.09
2023-04-28T02:20:15.818Z,96937.66
2023-04-28T02:22:42.238Z,96934.94
2023-04-28T02:25:08.869Z,96921.53
2023-04-28T02:27:35.628Z,96916.22
2023-04-28T02:30:02.882Z,96913.00
2023-04-28T02:32:29.651Z,96920.19
2023-04-28T02:34:56.186Z,96907.38
2023-04-28T02:37:22.612Z,96915.69
2023-04-28T02:39:48.970Z,96910.84
2023-04-28T02:42:15.481Z,96901.19
2023-04-28T02:44:42.014Z,96889.19
2023-04-28T02:47:08.452Z,96896.38
2023-04-28T02:49:34.970Z,96912.44
2023-04-28T02:52:01.528Z,96911.66
2023-04-28T02:54:27.956Z,96903.34
2023-04-28T02:56:57.700Z,96925.31
2023-04-28T02:59:24.316Z,96935.22
2023-04-28T03:01:50.865Z,96928.50
2023-04-28T03:04:17.596Z,96934.94
2023-04-28T03:06:44.366Z,96933.34
2023-04-28T03:09:10.815Z,96904.47
2023-04-28T03:11:37.270Z,96927.50
2023-04-28T03:14:03.713Z,96929.94
2023-04-28T03:16:30.304Z,96903.94
2023-04-28T03:18:56.730Z,96876.88
2023-04-28T03:21:23.147Z,96914.63
2023-04-28T03:23:49.489Z,96899.91
2023-04-28T03:26:16.047Z,96896.94
2023-04-28T03:28:42.640Z,96878.22
2023-04-28T03:31:09.147Z,96892.13
2023-04-28T03:33:35.580Z,96885.72
2023-04-28T03:36:02.309Z,96894.28
2023-04-28T03:38:29.178Z,96882.00
2023-04-28T03:40:55.685Z,96892.16
2023-04-28T03:43:22.318Z,96868.63
2023-04-28T03:45:48.800Z,96891.41
2023-04-28T03:48:15.368Z,96879.63
2023-04-28T03:50:41.942Z,96891.38
2023-04-28T03:53:09.047Z,96872.38
2023-04-28T03:55:35.529Z,96890.31
2023-04-28T03:58:01.907Z,96857.41
2023-04-28T04:00:28.360Z,96864.09
2023-04-28T04:02:55.294Z,96871.34
2023-04-28T04:05:23.023Z,96887.94
2023-04-28T04:07:49.559Z,96856.06
2023-04-28T04:10:16.019Z,96879.34
2023-04-28T04:12:42.392Z,96851.00
2023-04-28T04:15:10.005Z,96861.19
2023-04-28T04:17:36.534Z,96849.41
2023-04-28T04:20:03.067Z,96869.47
2023-04-28T04:22:29.507Z,96861.72
2023-04-28T04:24:55.968Z,96851.53
2023-04-28T04:27:22.439Z,96857.97
2023-04-28T04:29:48.911Z,96837.34
2023-04-28T04:32:15.273Z,96840.03
2023-04-28T04:34:41.666Z,96843.50
2023-04-28T04:37:08.973Z,96842.72
2023-04-28T04:39:35.372Z,96840.31
2023-04-28T04:42:13.373Z,96823.69
2023-04-28T04:44:43.750Z,96817.50
2023-04-28T04:47:10.158Z,96836.25
2023-04-28T04:49:36.679Z,96824.72
2023-04-28T04:52:03.141Z,96823.94
2023-04-28T04:54:29.627Z,96836.78
2023-04-28T04:56:57.783Z,96831.66
2023-04-28T04:59:24.248Z,96827.63
2023-04-28T05:01:50.912Z,96838.00
2023-04-28T05:04:17.839Z,96805.34
2023-04-28T05:06:44.641Z,96844.97
2023-04-28T05:09:11.091Z,96814.09
2023-04-28T05:11:37.899Z,96833.63
2023-04-28T05:14:04.404Z,96816.31
2023-04-28T05:16:30.966Z,96836.69
2023-04-28T05:18:57.392Z,96805.03
2023-04-28T05:21:23.905Z,96816.28
2023-04-28T05:23:50.380Z,96807.66
2023-04-28T05:26:16.778Z,96795.00
2023-04-28T05:28:43.134Z,96788.34
2023-04-28T05:31:09.669Z,96795.75
2023-04-28T05:33:36.043Z,96806.16
2023-04-28T05:36:02.430Z,96827.31
2023-04-28T05:38:28.864Z,96818.41
2023-04-28T05:40:55.472Z,96865.88
2023-04-28T05:43:21.844Z,96803.84
2023-04-28T05:45:48.375Z,96827.66
2023-04-28T05:48:14.774Z,96830.28
2023-04-28T05:50:41.188Z,96845.34
2023-04-28T05:53:07.662Z,96839.59
2023-04-28T05:55:34.085Z,96836.66
2023-04-28T05:58:00.672Z,96818.97
2023-04-28T06:00:27.155Z,96841.47
2023-04-28T06:02:53.918Z,96816.75
2023-04-28T06:05:21.124Z,96832.56
2023-04-28T06:07:49.979Z,96841.41
2023-04-28T06:10:16.708Z,96830.16
2023-04-28T06:12:43.157Z,96803.06
2023-04-28T06:15:09.841Z,96836.03
2023-04-28T06:17:36.239Z,96825.03
2023-04-28T06:20:02.725Z,96825.53
2023-04-28T06:22:29.134Z,96832.22
2023-04-28T06:24:55.543Z,96822.84
2023-04-28T06:27:21.896Z,96817.78
2023-04-28T06:29:48.654Z,96843.28
2023-04-28T06:32:15.156Z,96837.28
2023-04-28T06:34:42.061Z,96834.06
2023-04-28T06:37:08.515Z,96830.00
2023-04-28T06:39:34.887Z,96826.25
2023-04-28T06:42:01.317Z,96835.06
2023-04-28T06:44:28.063Z,96840.03
2023-04-28T06:46:54.541Z,96840.00
2023-04-28T06:49:21.063Z,96825.06
2023-04-28T06:51:47.558Z,96816.84
2023-04-28T06:54:14.020Z,96832.16
2023-04-28T06:56:40.830Z,96829.75
2023-04-28T06:59:07.370Z,96820.31
2023-04-28T07:01:33.734Z,96833.91
2023-04-28T07:04:00.349Z,96838.28
2023-04-28T07:06:26.949Z,96796.25
2023-04-28T07:08:53.504Z,96853.50
2023-04-28T07:11:19.930Z,96828.63
2023-04-28T07:13:46.792Z,96851.19
2023-04-28T07:16:13.300Z,96837.53
2023-04-28T07:18:40.064Z,96848.25
2023-04-28T07:21:06.720Z,96851.84
2023-04-28T07:23:33.083Z,96842.28
2023-04-28T07:25:59.620Z,96851.50
2023-04-28T07:28:26.317Z,96849.38
2023-04-28T07:30:52.799Z,96845.38
2023-04-28T07:33:19.324Z,96866.28
2023-04-28T07:35:45.804Z,96885.19
2023-04-28T07:38:12.290Z,96860.88
2023-04-28T07:40:38.663Z,96864.34
2023-04-28T07:43:05.124Z,96870.13
2023-04-28T07:45:31.603Z,96869.72
2023-04-28T07:47:58.301Z,96829.34
2023-04-28T07:50:25.362Z,96838.44
2023-04-28T07:52:51.819Z,96850.22
2023-04-28T07:55:18.588Z,96896.03
2023-04-28T07:57:45.066Z,96877.41
2023-04-28T08:00:11.711Z,96835.13
2023-04-28T08:02:38.300Z,96862.44
2023-04-28T08:05:05.228Z,96855.97
2023-04-28T08:07:31.671Z,96850.25
2023-04-28T08:09:58.116Z,96840.09
2023-04-28T08:12:24.619Z,96851.94
2023-04-28T08:14:51.028Z,96842.97
2023-04-28T08:17:17.634Z,96840.75
2023-04-28T08:19:44.160Z,96835.22
2023-04-28T08:22:10.543Z,96824.53
2023-04-28T08:24:36.927Z,96825.34
2023-04-28T08:27:03.586Z,96831.91
2023-04-28T08:29:30.387Z,96831.41
2023-04-28T08:31:56.797Z,96838.94
2023-04-28T08:34:23.417Z,96829.69
2023-04-28T08:36:50.003Z,96828.66
2023-04-28T08:39:16.518Z,96828.59
2023-04-28T08:41:43.060Z,96824.47
2023-04-28T08:44:09.586Z,96817.09
2023-04-28T08:46:36.061Z,96806.06
2023-04-28T08:49:02.654Z,96814.72
2023-04-28T08:51:35.720Z,96799.78
2023-04-28T08:56:34.822Z,96806.84
2023-04-28T08:59:04.588Z,96825.38
2023-04-28T09:01:31.426Z,96811.34
2023-04-28T09:03:58.033Z,96823.53
2023-04-28T09:06:24.468Z,96829.25
2023-04-28T09:08:50.927Z,96800.94
2023-04-28T09:11:17.542Z,96814.25
2023-04-28T09:13:44.079Z,96815.28
2023-04-28T09:16:10.727Z,96802.56
2023-04-28T09:18:37.341Z,96800.56
2023-04-28T09:21:04.323Z,96802.69
2023-04-28T09:23:30.823Z,96783.59
2023-04-28T09:25:58.795Z,96788.41
2023-04-28T09:28:25.270Z,96788.19
2023-04-28T09:30:51.689Z,96786.28
2023-04-28T09:33:18.437Z,96793.72
2023-04-28T09:35:44.972Z,96765.91
2023-04-28T09:38:11.455Z,96768.75
2023-04-28T09:40:53.380Z,96776.16
2023-04-28T09:43:23.230Z,96782.34
2023-04-28T09:45:49.714Z,96777.56
2023-04-28T09:48:16.251Z,96774.78
2023-04-28T09:50:42.725Z,96771.28
2023-04-28T09:53:09.188Z,96784.28
2023-04-28T09:55:35.673Z,96765.63
2023-04-28T09:58:02.173Z,96787.13
2023-04-28T10:00:28.684Z,96794.69
2023-04-28T10:02:55.267Z,96778.28
2023-04-28T10:05:22.095Z,96754.56
2023-04-28T10:07:48.935Z,96747.25
2023-04-28T10:10:15.606Z,96769.75
2023-04-28T10:12:44.017Z,96774.22
2023-04-28T10:15:10.762Z,96771.13
2023-04-28T10:17:37.444Z,96769.13
2023-04-28T10:20:04.086Z,96778.63
2023-04-28T10:22:30.495Z,96760.75
2023-04-28T10:24:56.880Z,96768.63
2023-04-28T10:27:27.780Z,96747.66
2023-04-28T10:29:54.205Z,96755.16
2023-04-28T10:32:24.072Z,96747.78
2023-04-28T10:34:50.610Z,96748.97
2023-04-28T10:37:16.970Z,96768.13
2023-04-28T10:40:03.343Z,96729.88
2023-04-28T10:42:48.596Z,96749.56
2023-04-28T10:45:15.137Z,96744.75
2023-04-28T10:48:00.361Z,96724.50
2023-04-28T10:50:38.526Z,96733.69
2023-04-28T10:53:05.768Z,96722.31
2023-04-28T10:55:35.292Z,96717.41
2023-04-28T10:58:17.072Z,96727.19
2023-04-28T11:00:44.104Z,96736.03
2023-04-28T11:03:30.822Z,96714.22
2023-04-28T11:06:17.832Z,96705.09
2023-04-28T11:08:44.254Z,96684.25
2023-04-28T11:11:13.580Z,96743.97
2023-04-28T11:13:41.923Z,96712.50
2023-04-28T11:16:09.308Z,96717.00
2023-04-28T11:18:43.728Z,96708.19
2023-04-28T11:21:10.511Z,96712.69
2023-04-28T11:23:36.999Z,96670.94
2023-04-28T11:26:03.605Z,96702.91
2023-04-28T11:28:30.052Z,96700.00
2023-04-28T11:31:16.792Z,96709.19
2023-04-28T11:33:43.323Z,96724.78
2023-04-28T11:36:14.622Z,96708.38
2023-04-28T11:38:44.567Z,96679.44
2023-04-28T11:41:10.999Z,96677.78
2023-04-28T11:43:46.873Z,96692.06
2023-04-28T11:46:18.058Z,96691.78
2023-04-28T11:48:44.601Z,96686.44
2023-04-28T11:51:11.130Z,96695.56
2023-04-28T11:53:41.446Z,96702.22
2023-04-28T11:56:07.959Z,96704.97
2023-04-28T11:58:34.658Z,96697.91
2023-04-28T12:01:10.780Z,96690.66
2023-04-28T12:03:46.416Z,96681.97
2023-04-28T12:06:16.724Z,96679.00
2023-04-28T12:08:43.230Z,96703.00
2023-04-28T12:11:10.077Z,96701.78
2023-04-28T12:13:37.168Z,96693.00
2023-04-28T12:16:04.147Z,96692.38
2023-04-28T12:18:30.603Z,96690.75
2023-04-28T12:20:57.173Z,96723.25
2023-04-28T12:23:30.592Z,96712.22
2023-04-28T12:25:57.106Z,96697.97
2023-04-28T12:28:23.565Z,96693.25
2023-04-28T12:30:50.652Z,96696.34
2023-04-28T12:33:23.781Z,96705.41
2023-04-28T12:35:50.250Z,96666.94
2023-04-28T12:38:16.703Z,96714.13
2023-04-28T12:40:43.380Z,96711.75
2023-04-28T12:43:09.870Z,96710.94
2023-04-28T12:45:38.690Z,96711.03
2023-04-28T12:48:05.560Z,96721.81
2023-04-28T12:50:32.033Z,96696.28
2023-04-28T12:52:58.659Z,96709.72
2023-04-28T12:55:25.381Z,96715.84
2023-04-28T12:57:51.797Z,96698.97
2023-04-28T13:00:18.338Z,96702.47
2023-04-28T13:02:44.960Z,96685.78
2023-04-28T13:05:11.554Z,96698.75
2023-04-28T13:07:37.970Z,96675.16
2023-04-28T13:10:04.548Z,96675.69
2023-04-28T13:12:31.028Z,96674.09
2023-04-28T13:14:57.475Z,96692.88
2023-04-28T13:17:23.962Z,96701.47
2023-04-28T13:19:50.503Z,96711.31
2023-04-28T13:22:17.013Z,96664.78
2023-04-28T13:24:43.669Z,96745.22
2023-04-28T13:27:10.543Z,96698.16
2023-04-28T13:29:37.201Z,96681.16
2023-04-28T13:32:03.736Z,96673.63
2023-04-28T13:34:30.217Z,96716.25
2023-04-28T13:36:56.599Z,96649.50
2023-04-28T13:39:23.255Z,96679.53
2023-04-28T13:41:49.916Z,96706.16
2023-04-28T13:44:16.403Z,96693.63
2023-04-28T13:46:43.056Z,96668.59
2023-04-28T13:49:09.678Z,96694.72
2023-04-28T13:51:36.049Z,96654.91
2023-04-28T13:54:02.579Z,96681.16
2023-04-28T13:56:29.925Z,96684.03
2023-04-28T13:58:56.331Z,96647.00
2023-04-28T14:01:22.827Z,96651.75
2023-04-28T14:03:49.442Z,96636.97
2023-04-28T14:06:15.942Z,96667.91
2023-04-28T14:08:42.384Z,96669.00
2023-04-28T14:11:08.736Z,96652.03
2023-04-28T14:13:35.386Z,96628.66
2023-04-28T14:16:01.877Z,96638.91
2023-04-28T14:18:28.407Z,96647.47
2023-04-28T14:20:54.977Z,96654.09
2023-04-28T14:23:21.885Z,96653.50
2023-04-28T14:25:48.425Z,96641.97
2023-04-28T14:28:14.905Z,96633.53
2023-04-28T14:30:41.411Z,96626.06
2023-04-28T14:33:07.922Z,96643.41
2023-04-28T14:35:34.422Z,96643.06
2023-04-28T14:38:01.115Z,96619.72
2023-04-28T14:40:27.545Z,96634.84
2023-04-28T14:42:53.981Z,96663.81
2023-04-28T14:45:20.516Z,96640.38
2023-04-28T14:47:47.011Z,96640.72
2023-04-28T14:50:14.251Z,96627.03
2023-04-28T14:52:40.960Z,96624.03
2023-04-28T14:55:07.506Z,96611.13
2023-04-28T14:57:33.939Z,96610.50
2023-04-28T15:00:00.446Z,96622.72
2023-04-28T15:02:27.974Z,96605.44
2023-04-28T15:04:57.318Z,96611.47
2023-04-28T15:07:24.356Z,96605.56
2023-04-28T15:09:50.772Z,96607.66
2023-04-28T15:12:17.236Z,96617.50
2023-04-28T15:14:43.646Z,96608.06
2023-04-28T15:17:10.326Z,96605.72
2023-04-28T15:19:36.723Z,96627.97
2023-04-28T15:22:03.250Z,96599.03
2023-04-28T15:24:29.634Z,96615.41
2023-04-28T15:26:55.997Z,96616.81
2023-04-28T15:29:22.643Z,96642.25
2023-04-28T15:31:49.210Z,96594.72
2023-04-28T15:34:15.671Z,96605.88
2023-04-28T15:36:42.678Z,96656.41
2023-04-28T15:39:09.164Z,96620.19
2023-04-28T15:41:35.570Z,96606.34
2023-04-28T15:44:02.206Z,96640.72
2023-04-28T15:46:28.829Z,96591.41
2023-04-28T15:48:55.192Z,96583.31
2023-04-28T15:51:21.958Z,96565.50
2023-04-28T15:53:48.363Z,96576.81
2023-04-28T15:56:15.083Z,96575.81
2023-04-28T15:58:42.377Z,96573.78
2023-04-28T16:01:08.928Z,96604.31
2023-04-28T16:03:35.743Z,96573.78
2023-04-28T16:06:02.466Z,96570.91
2023-04-28T16:08:28.904Z,96563.63
2023-04-28T16:10:55.287Z,96571.56
2023-04-28T16:13:21.754Z,96600.03
2023-04-28T16:15:48.115Z,96580.94
2023-04-28T16:18:14.520Z,96592.75
2023-04-28T16:20:40.979Z,96565.22
2023-04-28T16:23:07.526Z,96583.00
2023-04-28T16:25:33.994Z,96592.88
2023-04-28T16:28:00.474Z,96582.56
2023-04-28T16:30:27.012Z,96587.63
2023-04-28T16:32:53.431Z,96594.00
2023-04-28T16:35:19.900Z,96600.66
2023-04-28T16:37:46.524Z,96577.44
2023-04-28T16:40:13.028Z,96585.53
2023-04-28T16:42:39.646Z,96605.53
2023-04-28T16:45:06.369Z,96589.81
2023-04-28T16:47:32.928Z,96594.75
2023-04-28T16:49:59.553Z,96586.63
2023-04-28T16:52:26.106Z,96585.72
2023-04-28T16:54:52.524Z,96598.59
2023-04-28T16:57:18.978Z,96563.28
2023-04-28T16:59:45.421Z,96580.31
2023-04-28T17:02:11.929Z,96567.09
2023-04-28T17:04:38.841Z,96569.00
2023-04-28T17:07:05.585Z,96584.88
2023-04-28T17:09:31.993Z,96599.53
2023-04-28T17:11:58.476Z,96582.16
2023-04-28T17:14:24.875Z,96592.34
2023-04-28T17:16:51.267Z,96568.16
2023-04-28T17:19:17.726Z,96559.75
2023-04-28T17:21:44.214Z,96563.53
2023-04-28T17:24:10.898Z,96583.13
2023-04-28T17:26:37.744Z,96562.47
2023-04-28T17:29:04.163Z,96572.63
2023-04-28T17:31:30.593Z,96569.63
2023-04-28T17:33:57.296Z,96567.09
2023-04-28T17:36:23.792Z,96556.56
2023-04-28T17:38:50.256Z,96562.97
2023-04-28T17:41:16.727Z,96566.13
2023-04-28T17:43:43.966Z,96566.28
2023-04-28T17:46:10.470Z,96587.13
2023-04-28T17:48:37.608Z,96584.06
2023-04-28T17:51:04.024Z,96588.03
2023-04-28T17:53:30.470Z,96596.44
2023-04-28T17:55:56.845Z,96631.88
2023-04-28T17:58:23.304Z,96593.25
2023-04-28T18:00:50.234Z,96602.59
2023-04-28T18:03:16.800Z,96598.16
2023-04-28T18:05:43.318Z,96604.97
2023-04-28T18:08:09.721Z,96582.91
2023-04-28T18:10:36.711Z,96585.50
2023-04-28T18:13:03.641Z,96580.09
2023-04-28T18:15:30.047Z,96573.91
2023-04-28T18:17:56.622Z,96581.72
2023-04-28T18:20:23.240Z,96564.06
2023-04-28T18:22:49.672Z,96544.19
2023-04-28T18:25:16.150Z,96535.28
2023-04-28T18:27:42.821Z,96574.72
2023-04-28T18:30:09.781Z,96576.31
2023-04-28T18:32:36.381Z,96612.09
2023-04-28T18:35:02.951Z,96610.59
2023-04-28T18:37:29.391Z,96607.28
2023-04-28T18:39:56.662Z,96631.00
2023-04-28T18:42:23.304Z,96606.94
2023-04-28T18:44:54.541Z,96602.84
2023-04-28T18:47:21.079Z,96592.19
2023-04-28T18:49:47.682Z,96551.59
2023-04-28T18:52:14.228Z,96608.97
2023-04-28T18:54:40.845Z,96612.91
2023-04-28T18:57:07.264Z,96622.31
2023-04-28T18:59:33.641Z,96621.19
2023-04-28T19:02:01.765Z,96652.19
2023-04-28T19:04:28.295Z,96601.94
2023-04-28T19:06:54.852Z,96629.13
2023-04-28T19:09:21.376Z,96615.78
2023-04-28T19:11:47.801Z,96584.19
2023-04-28T19:14:14.264Z,96588.97
2023-04-28T19:16:40.839Z,96575.75
2023-04-28T19:19:09.578Z,96554.63
2023-04-28T19:21:42.749Z,96534.28
2023-04-28T19:24:09.108Z,96579.72
2023-04-28T19:26:35.557Z,96625.31
2023-04-28T19:29:01.986Z,96650.56
2023-04-28T19:31:28.481Z,96616.84
2023-04-28T19:33:54.984Z,96607.34
2023-04-28T19:36:21.776Z,96594.91
2023-04-28T19:38:48.133Z,96608.56
2023-04-28T19:41:14.494Z,96627.91
2023-04-28T19:43:40.967Z,96637.53
2023-04-28T19:46:07.438Z,96652.88
2023-04-28T19:48:33.968Z,96651.66
2023-04-28T19:51:00.457Z,96653.88
2023-04-28T19:53:26.903Z,96671.91
2023-04-28T19:55:53.323Z,96653.19
2023-04-28T19:58:19.807Z,96628.72
2023-04-28T20:00:46.262Z,96649.00
2023-04-28T20:03:12.752Z,96614.25
2023-04-28T20:05:39.480Z,96662.50
2023-04-28T20:08:05.947Z,96659.81
2023-04-28T20:10:32.410Z,96670.31
2023-04-28T20:12:58.886Z,96660.91
2023-04-28T20:15:25.350Z,96653.75
2023-04-28T20:17:51.846Z,96644.03
2023-04-28T20:20:18.311Z,96667.34
2023-04-28T20:22:44.735Z,96670.66
2023-04-28T20:25:11.642Z,96675.19
2023-04-28T20:27:38.201Z,96679.19
2023-04-28T20:30:04.925Z,96692.69
2023-04-28T20:32:31.494Z,96689.41
2023-04-28T20:34:58.012Z,96665.94
2023-04-28T20:37:24.387Z,96671.63
2023-04-28T20:39:50.906Z,96666.53
2023-04-28T20:42:17.552Z,96676.03
2023-04-28T20:44:44.062Z,96651.59
2023-04-28T20:47:10.557Z,96645.50
2023-04-28T20:49:37.143Z,96660.91
2023-04-28T20:52:03.894Z,96669.38
2023-04-28T20:54:30.363Z,96654.50
2023-04-28T20:56:56.795Z,96679.66
2023-04-28T20:59:23.490Z,96676.97
2023-04-28T21:01:49.953Z,96681.16
2023-04-28T21:04:16.627Z,96689.38
2023-04-28T21:06:43.267Z,96675.03
2023-04-28T21:09:09.652Z,96686.38
2023-04-28T21:11:36.214Z,96705.97
2023-04-28T21:14:02.610Z,96689.53
2023-04-28T21:16:29.414Z,96719.69
2023-04-28T21:18:55.920Z,96691.22
2023-04-28T21:21:22.445Z,96698.75
2023-04-28T21:23:48.937Z,96703.69
2023-04-28T21:26:15.431Z,96691.13
2023-04-28T21:28:41.910Z,96706.25
2023-04-28T21:31:08.286Z,96709.31
2023-04-28T21:33:34.870Z,96699.34
2023-04-28T21:36:05.145Z,96685.41
2023-04-28T21:38:31.616Z,96693.09
2023-04-28T21:40:58.092Z,96658.00
2023-04-28T21:43:24.620Z,96702.50
2023-04-28T21:45:51.138Z,96691.63
2023-04-28T21:48:18.083Z,96694.53
2023-04-28T21:50:44.646Z,96689.00
2023-04-28T21:53:11.100Z,96695.94
2023-04-28T21:55:37.550Z,96714.63
2023-04-28T21:58:03.936Z,96680.53
2023-04-28T22:00:30.718Z,96694.91
2023-04-28T22:02:57.454Z,96707.53
2023-04-28T22:05:24.043Z,96706.63
2023-04-28T22:07:50.742Z,96691.53
2023-04-28T22:10:17.235Z,96715.81
2023-04-28T22:12:43.646Z,96712.59
2023-04-28T22:15:10.306Z,96718.94
2023-04-28T22:17:36.811Z,96706.31
2023-04-28T22:20:03.667Z,96685.00
2023-04-28T22:22:30.147Z,96676.47
2023-04-28T22:24:56.706Z,96695.69
2023-04-28T22:27:23.180Z,96711.63
2023-04-28T22:29:49.731Z,96709.16
2023-04-28T22:32:16.371Z,96716.56
2023-04-28T22:34:42.843Z,96684.81
2023-04-28T22:37:09.259Z,96698.75
2023-04-28T22:39:35.713Z,96698.50
2023-04-28T22:42:02.198Z,96700.34
2023-04-28T22:44:28.642Z,96675.09
2023-04-28T22:46:55.285Z,96692.44
2023-04-28T22:49:21.822Z,96701.22
2023-04-28T22:51:48.294Z,96699.06
2023-04-28T22:54:14.826Z,96688.16
2023-04-28T22:56:41.217Z,96705.75
2023-04-28T22:59:07.661Z,96688.16
2023-04-28T23:01:34.156Z,96668.81
2023-04-28T23:04:00.765Z,96680.34
2023-04-28T23:06:27.269Z,96672.81
2023-04-28T23:08:53.824Z,96680.28
2023-04-28T23:11:20.542Z,96688.00
2023-04-28T23:13:46.947Z,96677.72
2023-04-28T23:16:13.477Z,96667.97
2023-04-28T23:18:39.906Z,96677.09
2023-04-28T23:21:06.292Z,96673.13
2023-04-28T23:23:32.783Z,96666.59
2023-04-28T23:25:59.192Z,96668.69
2023-04-28T23:28:25.761Z,96654.72
2023-04-28T23:30:52.311Z,96651.53
2023-04-28T23:33:19.153Z,96650.75
2023-04-28T23:35:45.673Z,96669.50
2023-04-28T23:38:12.172Z,96660.63
2023-04-28T23:40:38.676Z,96656.63
2023-04-28T23:43:05.310Z,96640.19
2023-04-28T23:45:31.840Z,96632.91
2023-04-28T23:47:58.397Z,96649.47
2023-04-28T23:50:24.932Z,96623.66
2023-04-28T23:52:51.475Z,96645.56
2023-04-28T23:55:17.872Z,96637.69
2023-04-28T23:57:44.269Z,96621.47
